sensor_id;sensor_type;location;lat;lon;timestamp;temperature;humidity
20091;DHT22;10205;49.678;6.560;2022-11-04T00:00:10;15.20;70.00
20091;DHT22;10205;49.678;6.560;2022-11-04T00:02:39;15.20;69.80
20091;DHT22;10205;49.678;6.560;2022-11-04T00:05:07;15.20;70.00
20091;DHT22;10205;49.678;6.560;2022-11-04T00:07:35;15.20;70.10
20091;DHT22;10205;49.678;6.560;2022-11-04T00:10:20;15.20;70.10
20091;DHT22;10205;49.678;6.560;2022-11-04T00:13:09;15.20;70.10
20091;DHT22;10205;49.678;6.560;2022-11-04T00:15:36;15.20;70.10
20091;DHT22;10205;49.678;6.560;2022-11-04T00:18:20;15.10;70.10
20091;DHT22;10205;49.678;6.560;2022-11-04T00:20:49;15.10;70.00
20091;DHT22;10205;49.678;6.560;2022-11-04T00:23:36;15.10;70.10
20091;DHT22;10205;49.678;6.560;2022-11-04T00:26:22;15.10;69.70
20091;DHT22;10205;49.678;6.560;2022-11-04T00:29:07;15.10;69.80
20091;DHT22;10205;49.678;6.560;2022-11-04T00:31:34;15.10;69.70
20091;DHT22;10205;49.678;6.560;2022-11-04T00:34:24;15.00;70.30
20091;DHT22;10205;49.678;6.560;2022-11-04T00:36:51;15.00;69.80
20091;DHT22;10205;49.678;6.560;2022-11-04T00:39:19;15.00;70.00
20091;DHT22;10205;49.678;6.560;2022-11-04T00:41:48;14.90;70.00
20091;DHT22;10205;49.678;6.560;2022-11-04T00:44:15;14.90;70.00
20091;DHT22;10205;49.678;6.560;2022-11-04T00:46:43;14.90;70.00
20091;DHT22;10205;49.678;6.560;2022-11-04T00:49:10;14.90;70.30
20091;DHT22;10205;49.678;6.560;2022-11-04T00:51:38;14.90;70.60
20091;DHT22;10205;49.678;6.560;2022-11-04T00:54:06;14.90;70.50
20091;DHT22;10205;49.678;6.560;2022-11-04T00:56:40;14.90;70.20
20091;DHT22;10205;49.678;6.560;2022-11-04T00:59:10;14.80;70.00
20091;DHT22;10205;49.678;6.560;2022-11-04T01:01:38;14.80;70.00
20091;DHT22;10205;49.678;6.560;2022-11-04T01:04:05;14.80;70.00
20091;DHT22;10205;49.678;6.560;2022-11-04T01:06:33;14.80;69.80
20091;DHT22;10205;49.678;6.560;2022-11-04T01:09:02;14.80;69.90
20091;DHT22;10205;49.678;6.560;2022-11-04T01:11:33;14.80;69.60
20091;DHT22;10205;49.678;6.560;2022-11-04T01:14:02;14.70;69.80
20091;DHT22;10205;49.678;6.560;2022-11-04T01:16:30;14.70;70.10
20091;DHT22;10205;49.678;6.560;2022-11-04T01:18:58;14.70;70.10
20091;DHT22;10205;49.678;6.560;2022-11-04T01:21:26;14.70;70.30
20091;DHT22;10205;49.678;6.560;2022-11-04T01:23:54;14.70;70.50
20091;DHT22;10205;49.678;6.560;2022-11-04T01:26:24;14.70;70.50
20091;DHT22;10205;49.678;6.560;2022-11-04T01:28:54;14.70;70.70
20091;DHT22;10205;49.678;6.560;2022-11-04T01:31:25;14.70;70.40
20091;DHT22;10205;49.678;6.560;2022-11-04T01:33:54;14.70;70.30
20091;DHT22;10205;49.678;6.560;2022-11-04T01:36:22;14.70;70.30
20091;DHT22;10205;49.678;6.560;2022-11-04T01:38:50;14.60;71.10
20091;DHT22;10205;49.678;6.560;2022-11-04T01:41:22;14.60;70.00
20091;DHT22;10205;49.678;6.560;2022-11-04T01:43:52;14.60;70.10
20091;DHT22;10205;49.678;6.560;2022-11-04T01:46:33;14.60;69.90
20091;DHT22;10205;49.678;6.560;2022-11-04T01:49:24;14.60;70.00
20091;DHT22;10205;49.678;6.560;2022-11-04T01:51:56;14.60;70.10
20091;DHT22;10205;49.678;6.560;2022-11-04T01:54:26;14.60;70.00
20091;DHT22;10205;49.678;6.560;2022-11-04T01:56:55;14.60;69.70
20091;DHT22;10205;49.678;6.560;2022-11-04T01:59:29;14.50;70.00
20091;DHT22;10205;49.678;6.560;2022-11-04T02:02:04;14.50;69.80
20091;DHT22;10205;49.678;6.560;2022-11-04T02:04:32;14.50;69.90
20091;DHT22;10205;49.678;6.560;2022-11-04T02:07:04;14.50;70.30
20091;DHT22;10205;49.678;6.560;2022-11-04T02:09:35;14.50;70.10
20091;DHT22;10205;49.678;6.560;2022-11-04T02:12:05;14.50;69.90
20091;DHT22;10205;49.678;6.560;2022-11-04T02:14:50;14.50;70.00
20091;DHT22;10205;49.678;6.560;2022-11-04T02:17:32;14.50;70.10
20091;DHT22;10205;49.678;6.560;2022-11-04T02:20:24;14.50;70.10
20091;DHT22;10205;49.678;6.560;2022-11-04T02:27:06;14.40;69.60
20091;DHT22;10205;49.678;6.560;2022-11-04T02:30:04;14.40;69.80
20091;DHT22;10205;49.678;6.560;2022-11-04T02:32:56;14.40;69.90
20091;DHT22;10205;49.678;6.560;2022-11-04T02:35:39;14.40;70.00
20091;DHT22;10205;49.678;6.560;2022-11-04T02:38:24;14.40;70.00
20091;DHT22;10205;49.678;6.560;2022-11-04T02:41:05;14.40;69.80
20091;DHT22;10205;49.678;6.560;2022-11-04T02:43:48;14.40;70.00
20091;DHT22;10205;49.678;6.560;2022-11-04T02:46:33;14.40;70.20
20091;DHT22;10205;49.678;6.560;2022-11-04T02:49:06;14.30;69.80
20091;DHT22;10205;49.678;6.560;2022-11-04T02:51:41;14.30;70.20
20091;DHT22;10205;49.678;6.560;2022-11-04T02:54:18;14.30;70.10
20091;DHT22;10205;49.678;6.560;2022-11-04T02:56:50;14.30;70.10
20091;DHT22;10205;49.678;6.560;2022-11-04T02:59:25;14.30;70.00
20091;DHT22;10205;49.678;6.560;2022-11-04T03:02:00;14.30;69.80
20091;DHT22;10205;49.678;6.560;2022-11-04T03:04:36;14.30;69.80
20091;DHT22;10205;49.678;6.560;2022-11-04T03:07:09;14.30;70.00
20091;DHT22;10205;49.678;6.560;2022-11-04T03:09:45;14.20;70.20
20091;DHT22;10205;49.678;6.560;2022-11-04T03:12:19;14.20;70.50
20091;DHT22;10205;49.678;6.560;2022-11-04T03:14:54;14.20;70.70
20091;DHT22;10205;49.678;6.560;2022-11-04T03:17:31;14.20;70.60
20091;DHT22;10205;49.678;6.560;2022-11-04T03:20:06;14.20;70.60
20091;DHT22;10205;49.678;6.560;2022-11-04T03:22:39;14.20;70.70
20091;DHT22;10205;49.678;6.560;2022-11-04T03:25:08;14.20;70.50
20091;DHT22;10205;49.678;6.560;2022-11-04T03:27:43;14.20;70.70
20091;DHT22;10205;49.678;6.560;2022-11-04T03:30:18;14.20;70.50
20091;DHT22;10205;49.678;6.560;2022-11-04T03:32:56;14.20;70.40
20091;DHT22;10205;49.678;6.560;2022-11-04T03:35:34;14.20;70.60
20091;DHT22;10205;49.678;6.560;2022-11-04T03:38:02;14.20;70.60
20091;DHT22;10205;49.678;6.560;2022-11-04T03:40:29;14.20;70.60
20091;DHT22;10205;49.678;6.560;2022-11-04T03:42:59;14.20;70.60
20091;DHT22;10205;49.678;6.560;2022-11-04T03:45:31;14.20;70.70
20091;DHT22;10205;49.678;6.560;2022-11-04T03:48:00;14.20;70.70
20091;DHT22;10205;49.678;6.560;2022-11-04T03:50:32;14.10;70.60
20091;DHT22;10205;49.678;6.560;2022-11-04T03:53:04;14.10;70.60
20091;DHT22;10205;49.678;6.560;2022-11-04T03:55:40;14.10;70.60
20091;DHT22;10205;49.678;6.560;2022-11-04T03:58:26;14.10;70.70
20091;DHT22;10205;49.678;6.560;2022-11-04T04:01:07;14.10;70.80
20091;DHT22;10205;49.678;6.560;2022-11-04T04:03:52;14.10;70.90
20091;DHT22;10205;49.678;6.560;2022-11-04T04:06:27;14.10;70.90
20091;DHT22;10205;49.678;6.560;2022-11-04T04:09:01;14.10;70.80
20091;DHT22;10205;49.678;6.560;2022-11-04T04:11:41;14.10;70.90
20091;DHT22;10205;49.678;6.560;2022-11-04T04:14:22;14.00;70.90
20091;DHT22;10205;49.678;6.560;2022-11-04T04:17:17;14.00;70.80
20091;DHT22;10205;49.678;6.560;2022-11-04T04:19:52;14.00;70.80
20091;DHT22;10205;49.678;6.560;2022-11-04T04:22:27;14.00;70.80
20091;DHT22;10205;49.678;6.560;2022-11-04T04:25:01;14.00;70.70
20091;DHT22;10205;49.678;6.560;2022-11-04T04:27:51;14.00;70.90
20091;DHT22;10205;49.678;6.560;2022-11-04T04:30:20;14.00;71.90
20091;DHT22;10205;49.678;6.560;2022-11-04T04:32:49;14.00;70.80
20091;DHT22;10205;49.678;6.560;2022-11-04T04:35:25;14.00;70.70
20091;DHT22;10205;49.678;6.560;2022-11-04T04:38:15;14.00;70.90
20091;DHT22;10205;49.678;6.560;2022-11-04T04:41:08;14.00;70.70
20091;DHT22;10205;49.678;6.560;2022-11-04T04:43:56;13.90;70.60
20091;DHT22;10205;49.678;6.560;2022-11-04T04:46:42;13.90;70.60
20091;DHT22;10205;49.678;6.560;2022-11-04T04:49:12;13.90;70.70
20091;DHT22;10205;49.678;6.560;2022-11-04T04:51:46;13.90;70.80
20091;DHT22;10205;49.678;6.560;2022-11-04T04:54:14;13.90;71.00
20091;DHT22;10205;49.678;6.560;2022-11-04T04:56:41;13.80;70.90
20091;DHT22;10205;49.678;6.560;2022-11-04T04:59:08;13.80;71.00
20091;DHT22;10205;49.678;6.560;2022-11-04T05:01:36;13.90;71.20
20091;DHT22;10205;49.678;6.560;2022-11-04T05:04:04;13.80;71.20
20091;DHT22;10205;49.678;6.560;2022-11-04T05:06:31;13.80;71.40
20091;DHT22;10205;49.678;6.560;2022-11-04T05:09:00;13.80;71.50
20091;DHT22;10205;49.678;6.560;2022-11-04T05:11:27;13.80;71.60
20091;DHT22;10205;49.678;6.560;2022-11-04T05:13:55;13.80;71.60
20091;DHT22;10205;49.678;6.560;2022-11-04T05:16:23;13.80;71.70
20091;DHT22;10205;49.678;6.560;2022-11-04T05:18:51;13.80;71.80
20091;DHT22;10205;49.678;6.560;2022-11-04T05:21:19;13.80;71.80
20091;DHT22;10205;49.678;6.560;2022-11-04T05:23:46;13.80;71.80
20091;DHT22;10205;49.678;6.560;2022-11-04T05:26:15;13.80;71.70
20091;DHT22;10205;49.678;6.560;2022-11-04T05:28:42;13.80;71.60
20091;DHT22;10205;49.678;6.560;2022-11-04T05:31:10;13.80;71.60
20091;DHT22;10205;49.678;6.560;2022-11-04T05:33:38;13.90;71.60
20091;DHT22;10205;49.678;6.560;2022-11-04T05:36:06;13.80;71.70
20091;DHT22;10205;49.678;6.560;2022-11-04T05:38:33;13.80;71.70
20091;DHT22;10205;49.678;6.560;2022-11-04T05:41:01;13.80;71.60
20091;DHT22;10205;49.678;6.560;2022-11-04T05:43:30;13.80;71.70
20091;DHT22;10205;49.678;6.560;2022-11-04T05:45:58;13.80;71.80
20091;DHT22;10205;49.678;6.560;2022-11-04T05:48:26;13.80;71.70
20091;DHT22;10205;49.678;6.560;2022-11-04T05:50:54;13.80;71.60
20091;DHT22;10205;49.678;6.560;2022-11-04T05:53:21;13.80;71.70
20091;DHT22;10205;49.678;6.560;2022-11-04T05:55:52;13.80;71.70
20091;DHT22;10205;49.678;6.560;2022-11-04T05:58:19;13.80;71.70
20091;DHT22;10205;49.678;6.560;2022-11-04T06:00:48;13.80;71.60
20091;DHT22;10205;49.678;6.560;2022-11-04T06:03:16;13.80;71.70
20091;DHT22;10205;49.678;6.560;2022-11-04T06:05:44;13.80;71.40
20091;DHT22;10205;49.678;6.560;2022-11-04T06:08:11;13.80;71.30
20091;DHT22;10205;49.678;6.560;2022-11-04T06:10:39;13.80;71.30
20091;DHT22;10205;49.678;6.560;2022-11-04T06:13:09;13.80;71.30
20091;DHT22;10205;49.678;6.560;2022-11-04T06:15:38;13.70;71.30
20091;DHT22;10205;49.678;6.560;2022-11-04T06:18:08;13.70;71.30
20091;DHT22;10205;49.678;6.560;2022-11-04T06:20:35;13.70;71.50
20091;DHT22;10205;49.678;6.560;2022-11-04T06:23:02;13.70;71.40
20091;DHT22;10205;49.678;6.560;2022-11-04T06:25:30;13.70;71.50
20091;DHT22;10205;49.678;6.560;2022-11-04T06:27:57;13.70;71.50
20091;DHT22;10205;49.678;6.560;2022-11-04T06:30:25;13.70;71.60
20091;DHT22;10205;49.678;6.560;2022-11-04T06:32:52;13.70;71.70
20091;DHT22;10205;49.678;6.560;2022-11-04T06:35:22;13.70;71.70
20091;DHT22;10205;49.678;6.560;2022-11-04T06:37:49;13.70;71.70
20091;DHT22;10205;49.678;6.560;2022-11-04T06:40:17;13.70;71.70
20091;DHT22;10205;49.678;6.560;2022-11-04T06:42:44;13.70;71.70
20091;DHT22;10205;49.678;6.560;2022-11-04T06:45:12;13.70;71.80
20091;DHT22;10205;49.678;6.560;2022-11-04T06:47:40;13.70;71.80
20091;DHT22;10205;49.678;6.560;2022-11-04T06:50:08;13.70;71.90
20091;DHT22;10205;49.678;6.560;2022-11-04T06:52:38;13.60;71.90
20091;DHT22;10205;49.678;6.560;2022-11-04T06:55:07;13.70;72.00
20091;DHT22;10205;49.678;6.560;2022-11-04T06:57:34;13.60;72.00
20091;DHT22;10205;49.678;6.560;2022-11-04T07:00:03;13.60;72.00
20091;DHT22;10205;49.678;6.560;2022-11-04T07:02:30;13.60;72.10
20091;DHT22;10205;49.678;6.560;2022-11-04T07:05:02;13.60;72.30
20091;DHT22;10205;49.678;6.560;2022-11-04T07:07:30;13.60;73.10
20091;DHT22;10205;49.678;6.560;2022-11-04T07:09:58;13.60;72.40
20091;DHT22;10205;49.678;6.560;2022-11-04T07:12:26;13.60;72.40
20091;DHT22;10205;49.678;6.560;2022-11-04T07:14:53;13.60;72.50
20091;DHT22;10205;49.678;6.560;2022-11-04T07:17:20;13.50;72.50
20091;DHT22;10205;49.678;6.560;2022-11-04T07:19:48;13.60;72.60
20091;DHT22;10205;49.678;6.560;2022-11-04T07:22:16;13.60;72.60
20091;DHT22;10205;49.678;6.560;2022-11-04T07:24:43;13.50;72.60
20091;DHT22;10205;49.678;6.560;2022-11-04T07:27:11;13.50;72.60
20091;DHT22;10205;49.678;6.560;2022-11-04T07:29:40;13.50;72.50
20091;DHT22;10205;49.678;6.560;2022-11-04T07:32:08;13.60;72.50
20091;DHT22;10205;49.678;6.560;2022-11-04T07:34:35;13.60;72.60
20091;DHT22;10205;49.678;6.560;2022-11-04T07:37:02;13.60;72.60
20091;DHT22;10205;49.678;6.560;2022-11-04T07:39:30;13.60;72.70
20091;DHT22;10205;49.678;6.560;2022-11-04T07:41:57;13.50;72.60
20091;DHT22;10205;49.678;6.560;2022-11-04T07:44:29;13.50;72.50
20091;DHT22;10205;49.678;6.560;2022-11-04T07:47:04;13.60;72.60
20091;DHT22;10205;49.678;6.560;2022-11-04T07:49:31;13.50;72.50
20091;DHT22;10205;49.678;6.560;2022-11-04T07:51:59;13.60;72.60
20091;DHT22;10205;49.678;6.560;2022-11-04T07:54:26;13.50;72.60
20091;DHT22;10205;49.678;6.560;2022-11-04T07:56:53;13.50;72.70
20091;DHT22;10205;49.678;6.560;2022-11-04T07:59:20;13.50;72.80
20091;DHT22;10205;49.678;6.560;2022-11-04T08:01:50;13.50;72.80
20091;DHT22;10205;49.678;6.560;2022-11-04T08:04:18;13.50;72.90
20091;DHT22;10205;49.678;6.560;2022-11-04T08:06:46;13.50;73.00
20091;DHT22;10205;49.678;6.560;2022-11-04T08:09:14;13.50;72.90
20091;DHT22;10205;49.678;6.560;2022-11-04T08:11:42;13.60;73.00
20091;DHT22;10205;49.678;6.560;2022-11-04T08:14:09;13.50;73.00
20091;DHT22;10205;49.678;6.560;2022-11-04T08:16:37;13.50;73.10
20091;DHT22;10205;49.678;6.560;2022-11-04T08:19:06;13.50;73.10
20091;DHT22;10205;49.678;6.560;2022-11-04T08:21:34;13.50;73.10
20091;DHT22;10205;49.678;6.560;2022-11-04T08:24:02;13.60;73.30
20091;DHT22;10205;49.678;6.560;2022-11-04T08:26:30;13.50;73.20
20091;DHT22;10205;49.678;6.560;2022-11-04T08:28:58;13.50;73.20
20091;DHT22;10205;49.678;6.560;2022-11-04T08:31:28;13.60;73.30
20091;DHT22;10205;49.678;6.560;2022-11-04T08:33:58;13.60;73.30
20091;DHT22;10205;49.678;6.560;2022-11-04T08:36:28;13.60;73.40
20091;DHT22;10205;49.678;6.560;2022-11-04T08:39:02;13.60;73.50
20091;DHT22;10205;49.678;6.560;2022-11-04T08:41:32;13.60;73.60
20091;DHT22;10205;49.678;6.560;2022-11-04T08:44:01;13.60;73.70
20091;DHT22;10205;49.678;6.560;2022-11-04T08:46:32;13.70;73.80
20091;DHT22;10205;49.678;6.560;2022-11-04T08:49:02;13.70;73.80
20091;DHT22;10205;49.678;6.560;2022-11-04T08:51:33;13.70;73.60
20091;DHT22;10205;49.678;6.560;2022-11-04T08:54:04;13.70;73.60
20091;DHT22;10205;49.678;6.560;2022-11-04T08:56:34;13.70;73.60
20091;DHT22;10205;49.678;6.560;2022-11-04T08:59:05;13.70;73.70
20091;DHT22;10205;49.678;6.560;2022-11-04T09:01:35;13.70;73.70
20091;DHT22;10205;49.678;6.560;2022-11-04T09:04:03;13.70;73.50
20091;DHT22;10205;49.678;6.560;2022-11-04T09:06:34;13.70;73.40
20091;DHT22;10205;49.678;6.560;2022-11-04T09:09:04;13.80;73.60
20091;DHT22;10205;49.678;6.560;2022-11-04T09:11:38;13.80;73.60
20091;DHT22;10205;49.678;6.560;2022-11-04T09:14:07;13.80;73.60
20091;DHT22;10205;49.678;6.560;2022-11-04T09:16:36;13.80;73.60
20091;DHT22;10205;49.678;6.560;2022-11-04T09:19:07;13.80;73.80
20091;DHT22;10205;49.678;6.560;2022-11-04T09:21:36;13.90;74.00
20091;DHT22;10205;49.678;6.560;2022-11-04T09:24:03;13.90;73.90
20091;DHT22;10205;49.678;6.560;2022-11-04T09:26:32;13.90;74.00
20091;DHT22;10205;49.678;6.560;2022-11-04T09:29:00;13.90;74.60
20091;DHT22;10205;49.678;6.560;2022-11-04T09:31:28;13.90;73.70
20091;DHT22;10205;49.678;6.560;2022-11-04T09:33:56;14.00;73.70
20091;DHT22;10205;49.678;6.560;2022-11-04T09:36:24;14.00;73.60
20091;DHT22;10205;49.678;6.560;2022-11-04T09:38:56;14.00;73.70
20091;DHT22;10205;49.678;6.560;2022-11-04T09:44:48;14.00;73.80
20091;DHT22;10205;49.678;6.560;2022-11-04T09:47:21;14.10;73.60
20091;DHT22;10205;49.678;6.560;2022-11-04T09:49:52;14.10;73.70
20091;DHT22;10205;49.678;6.560;2022-11-04T09:52:25;14.10;73.60
20091;DHT22;10205;49.678;6.560;2022-11-04T09:55:02;14.10;73.80
20091;DHT22;10205;49.678;6.560;2022-11-04T09:57:33;14.10;73.70
20091;DHT22;10205;49.678;6.560;2022-11-04T10:00:00;14.20;73.50
20091;DHT22;10205;49.678;6.560;2022-11-04T10:02:48;14.20;73.30
20091;DHT22;10205;49.678;6.560;2022-11-04T10:05:40;14.20;73.50
20091;DHT22;10205;49.678;6.560;2022-11-04T10:08:41;14.30;73.40
20091;DHT22;10205;49.678;6.560;2022-11-04T10:11:25;14.30;73.50
20091;DHT22;10205;49.678;6.560;2022-11-04T10:14:13;14.30;73.20
20091;DHT22;10205;49.678;6.560;2022-11-04T10:16:59;14.40;74.10
20091;DHT22;10205;49.678;6.560;2022-11-04T10:19:45;14.40;73.10
20091;DHT22;10205;49.678;6.560;2022-11-04T10:22:29;14.40;73.00
20091;DHT22;10205;49.678;6.560;2022-11-04T10:25:07;14.50;73.10
20091;DHT22;10205;49.678;6.560;2022-11-04T10:27:44;14.50;73.00
20091;DHT22;10205;49.678;6.560;2022-11-04T10:30:19;14.50;72.80
20091;DHT22;10205;49.678;6.560;2022-11-04T10:32:57;14.50;72.60
20091;DHT22;10205;49.678;6.560;2022-11-04T10:35:34;14.50;72.40
20091;DHT22;10205;49.678;6.560;2022-11-04T10:38:17;14.50;72.40
20091;DHT22;10205;49.678;6.560;2022-11-04T10:40:56;14.60;72.50
20091;DHT22;10205;49.678;6.560;2022-11-04T10:43:32;14.60;72.50
20091;DHT22;10205;49.678;6.560;2022-11-04T10:46:16;14.60;72.50
20091;DHT22;10205;49.678;6.560;2022-11-04T10:49:02;14.60;72.50
20091;DHT22;10205;49.678;6.560;2022-11-04T10:51:40;14.70;72.50
20091;DHT22;10205;49.678;6.560;2022-11-04T10:54:09;14.70;72.60
20091;DHT22;10205;49.678;6.560;2022-11-04T10:56:40;14.70;72.50
20091;DHT22;10205;49.678;6.560;2022-11-04T10:59:19;14.70;72.30
20091;DHT22;10205;49.678;6.560;2022-11-04T11:01:51;14.70;72.60
20091;DHT22;10205;49.678;6.560;2022-11-04T11:04:27;14.80;72.60
20091;DHT22;10205;49.678;6.560;2022-11-04T11:06:59;14.80;72.40
20091;DHT22;10205;49.678;6.560;2022-11-04T11:09:29;14.80;72.30
20091;DHT22;10205;49.678;6.560;2022-11-04T11:12:02;14.80;72.30
20091;DHT22;10205;49.678;6.560;2022-11-04T11:14:35;14.90;72.50
20091;DHT22;10205;49.678;6.560;2022-11-04T11:17:20;14.80;72.00
20091;DHT22;10205;49.678;6.560;2022-11-04T11:19:53;14.80;72.10
20091;DHT22;10205;49.678;6.560;2022-11-04T11:22:32;14.90;72.10
20091;DHT22;10205;49.678;6.560;2022-11-04T11:25:22;14.90;71.90
20091;DHT22;10205;49.678;6.560;2022-11-04T11:27:54;14.90;71.50
20091;DHT22;10205;49.678;6.560;2022-11-04T11:30:52;15.00;71.70
20091;DHT22;10205;49.678;6.560;2022-11-04T11:33:25;15.00;71.50
20091;DHT22;10205;49.678;6.560;2022-11-04T11:35:57;15.00;71.50
20091;DHT22;10205;49.678;6.560;2022-11-04T11:38:30;15.00;71.30
20091;DHT22;10205;49.678;6.560;2022-11-04T11:41:05;15.00;71.40
20091;DHT22;10205;49.678;6.560;2022-11-04T11:43:39;15.00;71.20
20091;DHT22;10205;49.678;6.560;2022-11-04T11:46:11;15.00;71.00
20091;DHT22;10205;49.678;6.560;2022-11-04T11:48:40;15.10;71.30
20091;DHT22;10205;49.678;6.560;2022-11-04T11:51:12;15.10;71.40
20091;DHT22;10205;49.678;6.560;2022-11-04T11:56:59;15.10;71.00
20091;DHT22;10205;49.678;6.560;2022-11-04T11:59:37;15.10;71.00
20091;DHT22;10205;49.678;6.560;2022-11-04T12:02:26;15.10;70.50
20091;DHT22;10205;49.678;6.560;2022-11-04T12:04:57;15.20;70.60
20091;DHT22;10205;49.678;6.560;2022-11-04T12:07:31;15.20;70.60
20091;DHT22;10205;49.678;6.560;2022-11-04T12:10:12;15.20;70.70
20091;DHT22;10205;49.678;6.560;2022-11-04T12:12:59;15.20;70.80
20091;DHT22;10205;49.678;6.560;2022-11-04T12:15:40;15.20;71.10
20091;DHT22;10205;49.678;6.560;2022-11-04T12:21:45;15.20;71.30
20091;DHT22;10205;49.678;6.560;2022-11-04T12:24:29;15.30;71.30
20091;DHT22;10205;49.678;6.560;2022-11-04T12:27:09;15.30;71.30
20091;DHT22;10205;49.678;6.560;2022-11-04T12:29:53;15.30;71.40
20091;DHT22;10205;49.678;6.560;2022-11-04T12:32:43;15.30;71.70
20091;DHT22;10205;49.678;6.560;2022-11-04T12:35:43;15.30;71.80
20091;DHT22;10205;49.678;6.560;2022-11-04T12:38:33;15.30;71.90
20091;DHT22;10205;49.678;6.560;2022-11-04T12:41:28;15.40;71.80
20091;DHT22;10205;49.678;6.560;2022-11-04T12:44:17;15.40;71.60
20091;DHT22;10205;49.678;6.560;2022-11-04T12:47:04;15.40;71.70
20091;DHT22;10205;49.678;6.560;2022-11-04T12:50:08;15.40;71.70
20091;DHT22;10205;49.678;6.560;2022-11-04T12:53:08;15.40;71.60
20091;DHT22;10205;49.678;6.560;2022-11-04T12:56:16;15.40;71.50
20091;DHT22;10205;49.678;6.560;2022-11-04T12:59:09;15.40;71.30
20091;DHT22;10205;49.678;6.560;2022-11-04T13:01:53;15.40;71.30
20091;DHT22;10205;49.678;6.560;2022-11-04T13:04:28;15.50;71.30
20091;DHT22;10205;49.678;6.560;2022-11-04T13:07:01;15.50;71.30
20091;DHT22;10205;49.678;6.560;2022-11-04T13:09:42;15.50;71.40
20091;DHT22;10205;49.678;6.560;2022-11-04T13:12:16;15.50;71.20
20091;DHT22;10205;49.678;6.560;2022-11-04T13:14:51;15.50;71.20
20091;DHT22;10205;49.678;6.560;2022-11-04T13:17:25;15.50;71.30
20091;DHT22;10205;49.678;6.560;2022-11-04T13:19:59;15.60;71.30
20091;DHT22;10205;49.678;6.560;2022-11-04T13:22:35;15.60;71.20
20091;DHT22;10205;49.678;6.560;2022-11-04T13:25:12;15.60;71.20
20091;DHT22;10205;49.678;6.560;2022-11-04T13:27:44;15.60;70.90
20091;DHT22;10205;49.678;6.560;2022-11-04T13:30:21;15.60;70.80
20091;DHT22;10205;49.678;6.560;2022-11-04T13:33:00;15.60;70.60
20091;DHT22;10205;49.678;6.560;2022-11-04T13:35:40;15.60;70.80
20091;DHT22;10205;49.678;6.560;2022-11-04T13:38:19;15.60;70.70
20091;DHT22;10205;49.678;6.560;2022-11-04T13:41:08;15.60;70.80
20091;DHT22;10205;49.678;6.560;2022-11-04T13:43:54;15.60;70.70
20091;DHT22;10205;49.678;6.560;2022-11-04T13:46:26;15.70;70.50
20091;DHT22;10205;49.678;6.560;2022-11-04T13:49:02;15.70;70.40
20091;DHT22;10205;49.678;6.560;2022-11-04T13:51:41;15.70;70.30
20091;DHT22;10205;49.678;6.560;2022-11-04T13:54:29;15.70;70.10
20091;DHT22;10205;49.678;6.560;2022-11-04T13:57:14;15.70;69.80
20091;DHT22;10205;49.678;6.560;2022-11-04T14:00:07;15.70;69.90
20091;DHT22;10205;49.678;6.560;2022-11-04T14:02:47;15.70;69.80
20091;DHT22;10205;49.678;6.560;2022-11-04T14:08:33;15.70;70.00
20091;DHT22;10205;49.678;6.560;2022-11-04T14:11:10;15.70;70.30
20091;DHT22;10205;49.678;6.560;2022-11-04T14:14:12;15.70;70.20
20091;DHT22;10205;49.678;6.560;2022-11-04T14:16:45;15.70;70.30
20091;DHT22;10205;49.678;6.560;2022-11-04T14:22:33;15.60;70.40
20091;DHT22;10205;49.678;6.560;2022-11-04T14:25:22;15.70;70.40
20091;DHT22;10205;49.678;6.560;2022-11-04T14:27:56;15.70;70.30
20091;DHT22;10205;49.678;6.560;2022-11-04T14:30:42;15.70;70.40
20091;DHT22;10205;49.678;6.560;2022-11-04T14:33:32;15.60;70.20
20091;DHT22;10205;49.678;6.560;2022-11-04T14:36:28;15.60;70.30
20091;DHT22;10205;49.678;6.560;2022-11-04T14:39:18;15.60;70.30
20091;DHT22;10205;49.678;6.560;2022-11-04T14:44:37;15.60;70.40
20091;DHT22;10205;49.678;6.560;2022-11-04T14:47:18;15.60;70.40
20091;DHT22;10205;49.678;6.560;2022-11-04T14:49:51;15.60;70.40
20091;DHT22;10205;49.678;6.560;2022-11-04T14:52:27;15.60;70.40
20091;DHT22;10205;49.678;6.560;2022-11-04T14:55:02;15.60;70.40
20091;DHT22;10205;49.678;6.560;2022-11-04T14:57:48;15.60;70.40
20091;DHT22;10205;49.678;6.560;2022-11-04T15:00:28;15.60;70.20
20091;DHT22;10205;49.678;6.560;2022-11-04T15:03:13;15.60;70.30
20091;DHT22;10205;49.678;6.560;2022-11-04T15:05:48;15.60;70.30
20091;DHT22;10205;49.678;6.560;2022-11-04T15:08:27;15.60;70.30
20091;DHT22;10205;49.678;6.560;2022-11-04T15:11:07;15.50;70.40
20091;DHT22;10205;49.678;6.560;2022-11-04T15:13:44;15.60;70.40
20091;DHT22;10205;49.678;6.560;2022-11-04T15:16:26;15.50;70.40
20091;DHT22;10205;49.678;6.560;2022-11-04T15:18:58;15.50;70.40
20091;DHT22;10205;49.678;6.560;2022-11-04T15:21:27;15.50;70.40
20091;DHT22;10205;49.678;6.560;2022-11-04T15:23:56;15.50;70.40
20091;DHT22;10205;49.678;6.560;2022-11-04T15:26:25;15.50;70.40
20091;DHT22;10205;49.678;6.560;2022-11-04T15:28:59;15.50;70.40
20091;DHT22;10205;49.678;6.560;2022-11-04T15:31:32;15.50;70.40
20091;DHT22;10205;49.678;6.560;2022-11-04T15:34:07;15.50;70.40
20091;DHT22;10205;49.678;6.560;2022-11-04T15:36:40;15.50;70.40
20091;DHT22;10205;49.678;6.560;2022-11-04T15:39:13;15.50;70.40
20091;DHT22;10205;49.678;6.560;2022-11-04T15:41:42;15.50;70.40
20091;DHT22;10205;49.678;6.560;2022-11-04T15:44:30;15.40;70.30
20091;DHT22;10205;49.678;6.560;2022-11-04T15:47:02;15.40;70.20
20091;DHT22;10205;49.678;6.560;2022-11-04T15:49:48;15.40;70.10
20091;DHT22;10205;49.678;6.560;2022-11-04T15:52:21;15.40;70.20
20091;DHT22;10205;49.678;6.560;2022-11-04T15:54:52;15.40;70.30
20091;DHT22;10205;49.678;6.560;2022-11-04T15:57:27;15.40;70.30
20091;DHT22;10205;49.678;6.560;2022-11-04T16:00:02;15.40;70.30
20091;DHT22;10205;49.678;6.560;2022-11-04T16:02:36;15.40;70.20
20091;DHT22;10205;49.678;6.560;2022-11-04T16:05:22;15.40;70.20
20091;DHT22;10205;49.678;6.560;2022-11-04T16:10:41;15.30;70.30
20091;DHT22;10205;49.678;6.560;2022-11-04T16:13:23;15.30;70.30
20091;DHT22;10205;49.678;6.560;2022-11-04T16:16:02;15.30;70.40
20091;DHT22;10205;49.678;6.560;2022-11-04T16:18:35;15.30;71.30
20091;DHT22;10205;49.678;6.560;2022-11-04T16:21:12;15.30;70.50
20091;DHT22;10205;49.678;6.560;2022-11-04T16:23:50;15.30;70.50
20091;DHT22;10205;49.678;6.560;2022-11-04T16:26:26;15.30;70.50
20091;DHT22;10205;49.678;6.560;2022-11-04T16:29:00;15.30;70.50
20091;DHT22;10205;49.678;6.560;2022-11-04T16:31:35;15.30;70.50
20091;DHT22;10205;49.678;6.560;2022-11-04T16:34:04;15.20;70.50
20091;DHT22;10205;49.678;6.560;2022-11-04T16:36:38;15.20;70.50
20091;DHT22;10205;49.678;6.560;2022-11-04T16:39:06;15.30;70.60
20091;DHT22;10205;49.678;6.560;2022-11-04T16:41:36;15.20;70.60